This is the latest recevied weather packets stored in our database for station/object SQ6PCH-10. If no packets are shown the sender has not sent any weather packets the latest 10 day(s).
| Time | Temp. | Humidity | Pressure | Rain* | Wind** | Luminosity | Snow |
|---|---|---|---|---|---|---|---|
| 1777692465 | 4.44° C | 89% | 1010.1 hPa | - | - | - | - |
| 1777691865 | 5° C | 89% | 1010 hPa | - | - | - | - |
| 1777691265 | 5° C | 89% | 1010.1 hPa | - | - | - | - |
| 1777690665 | 5° C | 88% | 1010.2 hPa | - | - | - | - |
| 1777690065 | 5° C | 88% | 1010.2 hPa | - | - | - | - |
| 1777689464 | 5° C | 88% | 1010.1 hPa | - | - | - | - |
| 1777687664 | 5.56° C | 87% | 1010.1 hPa | - | - | - | - |
| 1777672660 | 9.44° C | 65% | 1010.6 hPa | - | - | - | - |
| 1777672060 | 9.44° C | 67% | 1010.6 hPa | - | - | - | - |
| 1777671460 | 10° C | 65% | 1010.6 hPa | - | - | - | - |
| 1777670259 | 10° C | 64% | 1010.6 hPa | - | - | - | - |
| 1777669659 | 10.56° C | 63% | 1010.6 hPa | - | - | - | - |
| 1777669059 | 10.56° C | 63% | 1010.6 hPa | - | - | - | - |
| 1777668459 | 11.11° C | 60% | 1010.6 hPa | - | - | - | - |
| 1777667859 | 11.67° C | 58% | 1010.6 hPa | - | - | - | - |
| 1777667258 | 11.67° C | 57% | 1010.5 hPa | - | - | - | - |
| 1777666058 | 12.22° C | 53% | 1010.5 hPa | - | - | - | - |
| 1777664258 | 13.33° C | 50% | 1010.5 hPa | - | - | - | - |
| 1777661857 | 15° C | 43% | 1010.4 hPa | - | - | - | - |
| 1777660656 | 15.56° C | 42% | 1010.3 hPa | - | - | - | - |
| 1777660056 | 16.11° C | 41% | 1010.3 hPa | - | - | - | - |
| 1777659456 | 16.67° C | 41% | 1010.2 hPa | - | - | - | - |
| 1777658856 | 17.22° C | 39% | 1010.1 hPa | - | - | - | - |
| 1777657656 | 18.89° C | 34% | 1010.1 hPa | - | - | - | - |
| 1777657056 | 21.11° C | 30% | 1010 hPa | - | - | - | - |
* Rain since midnight (hover to see other rain measurements)
** Current wind speed in m/s (hover to see current wind gust speed)